sensor_id;sensor_type;location;lat;lon;timestamp;temperature;humidity
27781;DHT22;15167;1.318;103.762;2022-10-16T00:00:41;24.30;99.90
27781;DHT22;15167;1.318;103.762;2022-10-16T00:03:08;24.30;99.90
27781;DHT22;15167;1.318;103.762;2022-10-16T00:05:41;24.30;99.90
27781;DHT22;15167;1.318;103.762;2022-10-16T00:08:08;24.40;99.90
27781;DHT22;15167;1.318;103.762;2022-10-16T00:10:35;24.40;99.90
27781;DHT22;15167;1.318;103.762;2022-10-16T00:13:01;24.40;99.90
27781;DHT22;15167;1.318;103.762;2022-10-16T00:15:27;24.40;99.90
27781;DHT22;15167;1.318;103.762;2022-10-16T00:17:53;24.50;99.90
27781;DHT22;15167;1.318;103.762;2022-10-16T00:20:19;24.50;99.90
27781;DHT22;15167;1.318;103.762;2022-10-16T00:22:45;24.50;99.90
27781;DHT22;15167;1.318;103.762;2022-10-16T00:25:11;24.60;99.90
27781;DHT22;15167;1.318;103.762;2022-10-16T00:27:38;24.60;99.90
27781;DHT22;15167;1.318;103.762;2022-10-16T00:30:04;24.60;99.90
27781;DHT22;15167;1.318;103.762;2022-10-16T00:32:30;24.60;99.90
27781;DHT22;15167;1.318;103.762;2022-10-16T00:34:56;24.70;99.90
27781;DHT22;15167;1.318;103.762;2022-10-16T00:37:22;24.70;99.90
27781;DHT22;15167;1.318;103.762;2022-10-16T00:39:48;24.70;99.90
27781;DHT22;15167;1.318;103.762;2022-10-16T00:42:16;24.80;99.90
27781;DHT22;15167;1.318;103.762;2022-10-16T00:47:09;24.90;99.90
27781;DHT22;15167;1.318;103.762;2022-10-16T00:49:36;24.90;99.90
27781;DHT22;15167;1.318;103.762;2022-10-16T00:52:02;24.90;99.90
27781;DHT22;15167;1.318;103.762;2022-10-16T00:54:29;25.00;99.90
27781;DHT22;15167;1.318;103.762;2022-10-16T00:56:58;25.00;99.90
27781;DHT22;15167;1.318;103.762;2022-10-16T00:59:41;25.00;99.90
27781;DHT22;15167;1.318;103.762;2022-10-16T01:02:08;25.00;99.90
27781;DHT22;15167;1.318;103.762;2022-10-16T01:04:37;25.00;99.90
27781;DHT22;15167;1.318;103.762;2022-10-16T01:07:20;25.10;99.90
27781;DHT22;15167;1.318;103.762;2022-10-16T01:12:23;25.20;99.90
27781;DHT22;15167;1.318;103.762;2022-10-16T01:14:56;25.20;99.90
27781;DHT22;15167;1.318;103.762;2022-10-16T01:17:33;25.20;99.90
27781;DHT22;15167;1.318;103.762;2022-10-16T01:20:08;25.20;99.90
27781;DHT22;15167;1.318;103.762;2022-10-16T01:22:42;25.30;99.90
27781;DHT22;15167;1.318;103.762;2022-10-16T01:25:11;25.30;99.90
27781;DHT22;15167;1.318;103.762;2022-10-16T01:27:40;25.30;99.90
27781;DHT22;15167;1.318;103.762;2022-10-16T01:30:13;25.30;99.90
27781;DHT22;15167;1.318;103.762;2022-10-16T01:32:41;25.40;99.90
27781;DHT22;15167;1.318;103.762;2022-10-16T01:35:11;25.40;99.90
27781;DHT22;15167;1.318;103.762;2022-10-16T01:37:41;25.40;99.90
27781;DHT22;15167;1.318;103.762;2022-10-16T01:40:11;25.40;99.90
27781;DHT22;15167;1.318;103.762;2022-10-16T01:42:42;25.40;99.90
27781;DHT22;15167;1.318;103.762;2022-10-16T01:45:09;25.50;99.90
27781;DHT22;15167;1.318;103.762;2022-10-16T01:47:39;25.50;99.90
27781;DHT22;15167;1.318;103.762;2022-10-16T01:50:05;25.50;99.90
27781;DHT22;15167;1.318;103.762;2022-10-16T01:52:32;25.50;99.90
27781;DHT22;15167;1.318;103.762;2022-10-16T01:55:00;25.50;99.90
27781;DHT22;15167;1.318;103.762;2022-10-16T01:57:28;25.60;99.90
27781;DHT22;15167;1.318;103.762;2022-10-16T01:59:56;25.60;99.90
27781;DHT22;15167;1.318;103.762;2022-10-16T02:02:24;25.70;99.90
27781;DHT22;15167;1.318;103.762;2022-10-16T02:04:53;25.70;99.90
27781;DHT22;15167;1.318;103.762;2022-10-16T02:07:20;25.70;99.90
27781;DHT22;15167;1.318;103.762;2022-10-16T02:09:46;25.70;99.90
27781;DHT22;15167;1.318;103.762;2022-10-16T02:14:39;25.80;99.90
27781;DHT22;15167;1.318;103.762;2022-10-16T02:17:12;25.90;99.90
27781;DHT22;15167;1.318;103.762;2022-10-16T02:19:38;26.10;99.90
27781;DHT22;15167;1.318;103.762;2022-10-16T02:22:05;26.20;99.90
27781;DHT22;15167;1.318;103.762;2022-10-16T02:24:33;26.20;99.90
27781;DHT22;15167;1.318;103.762;2022-10-16T02:29:34;26.40;99.90
27781;DHT22;15167;1.318;103.762;2022-10-16T02:32:04;26.50;99.90
27781;DHT22;15167;1.318;103.762;2022-10-16T02:34:32;26.50;99.90
27781;DHT22;15167;1.318;103.762;2022-10-16T02:36:59;26.60;99.90
27781;DHT22;15167;1.318;103.762;2022-10-16T02:39:26;26.60;99.90
27781;DHT22;15167;1.318;103.762;2022-10-16T02:41:52;26.70;99.90
27781;DHT22;15167;1.318;103.762;2022-10-16T02:44:19;26.80;99.90
27781;DHT22;15167;1.318;103.762;2022-10-16T02:46:45;26.90;99.90
27781;DHT22;15167;1.318;103.762;2022-10-16T02:49:11;27.00;99.90
27781;DHT22;15167;1.318;103.762;2022-10-16T02:51:37;27.00;99.90
27781;DHT22;15167;1.318;103.762;2022-10-16T02:54:03;27.10;99.90
27781;DHT22;15167;1.318;103.762;2022-10-16T02:56:29;27.20;99.90
27781;DHT22;15167;1.318;103.762;2022-10-16T02:58:56;27.20;99.90
27781;DHT22;15167;1.318;103.762;2022-10-16T03:01:23;27.30;99.90
27781;DHT22;15167;1.318;103.762;2022-10-16T03:03:49;27.40;99.90
27781;DHT22;15167;1.318;103.762;2022-10-16T03:06:15;27.40;99.90
27781;DHT22;15167;1.318;103.762;2022-10-16T03:08:41;27.50;99.90
27781;DHT22;15167;1.318;103.762;2022-10-16T03:11:08;27.60;99.90
27781;DHT22;15167;1.318;103.762;2022-10-16T03:13:34;27.60;99.90
27781;DHT22;15167;1.318;103.762;2022-10-16T03:16:00;27.60;99.90
27781;DHT22;15167;1.318;103.762;2022-10-16T03:18:26;27.60;99.90
27781;DHT22;15167;1.318;103.762;2022-10-16T03:20:52;27.80;99.90
27781;DHT22;15167;1.318;103.762;2022-10-16T03:23:18;27.70;99.90
27781;DHT22;15167;1.318;103.762;2022-10-16T03:25:44;27.70;99.90
27781;DHT22;15167;1.318;103.762;2022-10-16T03:28:10;27.70;99.90
27781;DHT22;15167;1.318;103.762;2022-10-16T03:30:37;27.70;99.90
27781;DHT22;15167;1.318;103.762;2022-10-16T03:33:05;27.90;99.90
27781;DHT22;15167;1.318;103.762;2022-10-16T03:35:32;27.90;99.90
27781;DHT22;15167;1.318;103.762;2022-10-16T03:37:58;27.90;99.90
27781;DHT22;15167;1.318;103.762;2022-10-16T03:40:24;28.00;99.90
27781;DHT22;15167;1.318;103.762;2022-10-16T03:42:51;27.90;99.90
27781;DHT22;15167;1.318;103.762;2022-10-16T03:45:17;27.90;99.90
27781;DHT22;15167;1.318;103.762;2022-10-16T03:47:43;27.90;99.90
27781;DHT22;15167;1.318;103.762;2022-10-16T03:50:09;27.90;99.90
27781;DHT22;15167;1.318;103.762;2022-10-16T03:52:35;27.90;99.90
27781;DHT22;15167;1.318;103.762;2022-10-16T03:55:01;27.80;99.90
27781;DHT22;15167;1.318;103.762;2022-10-16T03:57:28;27.80;99.90
27781;DHT22;15167;1.318;103.762;2022-10-16T03:59:54;28.00;99.90
27781;DHT22;15167;1.318;103.762;2022-10-16T04:02:20;28.00;99.90
27781;DHT22;15167;1.318;103.762;2022-10-16T04:04:46;28.00;99.90
27781;DHT22;15167;1.318;103.762;2022-10-16T04:07:12;28.00;99.90
27781;DHT22;15167;1.318;103.762;2022-10-16T04:09:38;28.00;99.90
27781;DHT22;15167;1.318;103.762;2022-10-16T04:12:04;27.90;99.90
27781;DHT22;15167;1.318;103.762;2022-10-16T04:14:30;28.00;99.90
27781;DHT22;15167;1.318;103.762;2022-10-16T04:16:56;28.00;99.90
27781;DHT22;15167;1.318;103.762;2022-10-16T04:19:22;28.00;99.90
27781;DHT22;15167;1.318;103.762;2022-10-16T04:21:49;28.00;99.90
27781;DHT22;15167;1.318;103.762;2022-10-16T04:24:15;28.00;99.90
27781;DHT22;15167;1.318;103.762;2022-10-16T04:26:41;28.10;99.90
27781;DHT22;15167;1.318;103.762;2022-10-16T04:29:07;28.10;99.90
27781;DHT22;15167;1.318;103.762;2022-10-16T04:31:33;28.20;99.90
27781;DHT22;15167;1.318;103.762;2022-10-16T04:33:59;28.20;99.90
27781;DHT22;15167;1.318;103.762;2022-10-16T04:36:25;28.20;99.90
27781;DHT22;15167;1.318;103.762;2022-10-16T04:38:51;28.40;99.90
27781;DHT22;15167;1.318;103.762;2022-10-16T04:41:17;28.50;99.90
27781;DHT22;15167;1.318;103.762;2022-10-16T04:43:43;28.60;99.90
27781;DHT22;15167;1.318;103.762;2022-10-16T04:46:10;28.60;99.90
27781;DHT22;15167;1.318;103.762;2022-10-16T04:48:36;28.70;99.90
27781;DHT22;15167;1.318;103.762;2022-10-16T04:51:02;28.80;99.90
27781;DHT22;15167;1.318;103.762;2022-10-16T04:53:28;28.80;99.90
27781;DHT22;15167;1.318;103.762;2022-10-16T04:55:54;28.80;99.90
27781;DHT22;15167;1.318;103.762;2022-10-16T04:58:21;29.00;99.90
27781;DHT22;15167;1.318;103.762;2022-10-16T05:00:47;29.10;99.90
27781;DHT22;15167;1.318;103.762;2022-10-16T05:03:13;29.10;99.90
27781;DHT22;15167;1.318;103.762;2022-10-16T05:05:43;29.30;99.90
27781;DHT22;15167;1.318;103.762;2022-10-16T05:08:11;29.40;99.90
27781;DHT22;15167;1.318;103.762;2022-10-16T05:10:37;29.50;99.90
27781;DHT22;15167;1.318;103.762;2022-10-16T05:13:03;29.60;99.90
27781;DHT22;15167;1.318;103.762;2022-10-16T05:15:29;29.60;99.90
27781;DHT22;15167;1.318;103.762;2022-10-16T05:17:56;29.70;99.90
27781;DHT22;15167;1.318;103.762;2022-10-16T05:20:22;29.80;99.90
27781;DHT22;15167;1.318;103.762;2022-10-16T05:22:48;29.90;99.90
27781;DHT22;15167;1.318;103.762;2022-10-16T05:25:15;30.00;99.90
27781;DHT22;15167;1.318;103.762;2022-10-16T05:27:41;30.00;99.90
27781;DHT22;15167;1.318;103.762;2022-10-16T05:30:07;30.00;99.90
27781;DHT22;15167;1.318;103.762;2022-10-16T05:32:33;30.10;99.90
27781;DHT22;15167;1.318;103.762;2022-10-16T05:35:00;30.10;85.40
27781;DHT22;15167;1.318;103.762;2022-10-16T05:37:29;30.10;98.20
27781;DHT22;15167;1.318;103.762;2022-10-16T05:39:55;30.20;98.30
27781;DHT22;15167;1.318;103.762;2022-10-16T05:42:21;30.20;99.90
27781;DHT22;15167;1.318;103.762;2022-10-16T05:44:47;30.10;1.00
27781;DHT22;15167;1.318;103.762;2022-10-16T05:47:13;30.00;1.00
27781;DHT22;15167;1.318;103.762;2022-10-16T05:49:40;30.00;99.90
27781;DHT22;15167;1.318;103.762;2022-10-16T05:52:06;29.90;99.90
27781;DHT22;15167;1.318;103.762;2022-10-16T05:54:32;29.90;1.00
27781;DHT22;15167;1.318;103.762;2022-10-16T05:56:58;29.80;99.90
27781;DHT22;15167;1.318;103.762;2022-10-16T05:59:24;29.70;99.90
27781;DHT22;15167;1.318;103.762;2022-10-16T06:01:50;29.70;99.90
27781;DHT22;15167;1.318;103.762;2022-10-16T06:04:16;29.70;99.90
27781;DHT22;15167;1.318;103.762;2022-10-16T06:06:42;29.60;1.00
27781;DHT22;15167;1.318;103.762;2022-10-16T06:09:09;29.70;1.00
27781;DHT22;15167;1.318;103.762;2022-10-16T06:11:35;29.70;1.00
27781;DHT22;15167;1.318;103.762;2022-10-16T06:14:02;29.80;1.00
27781;DHT22;15167;1.318;103.762;2022-10-16T06:16:32;29.80;1.00
27781;DHT22;15167;1.318;103.762;2022-10-16T06:18:59;29.80;24.10
27781;DHT22;15167;1.318;103.762;2022-10-16T06:21:26;29.90;1.00
27781;DHT22;15167;1.318;103.762;2022-10-16T06:23:53;29.90;1.00
27781;DHT22;15167;1.318;103.762;2022-10-16T06:26:20;30.00;24.70
27781;DHT22;15167;1.318;103.762;2022-10-16T06:28:46;30.00;1.00
27781;DHT22;15167;1.318;103.762;2022-10-16T06:31:13;30.10;1.00
27781;DHT22;15167;1.318;103.762;2022-10-16T06:33:39;30.10;1.00
27781;DHT22;15167;1.318;103.762;2022-10-16T06:36:07;30.30;1.00
27781;DHT22;15167;1.318;103.762;2022-10-16T06:38:33;30.30;1.00
27781;DHT22;15167;1.318;103.762;2022-10-16T06:41:00;30.30;1.00
27781;DHT22;15167;1.318;103.762;2022-10-16T06:43:27;30.30;1.00
27781;DHT22;15167;1.318;103.762;2022-10-16T06:45:56;30.30;1.00
27781;DHT22;15167;1.318;103.762;2022-10-16T06:48:22;30.10;99.90
27781;DHT22;15167;1.318;103.762;2022-10-16T06:53:27;29.90;1.00
27781;DHT22;15167;1.318;103.762;2022-10-16T06:55:54;29.80;1.00
27781;DHT22;15167;1.318;103.762;2022-10-16T06:58:20;29.90;1.00
27781;DHT22;15167;1.318;103.762;2022-10-16T07:00:46;30.00;1.00
27781;DHT22;15167;1.318;103.762;2022-10-16T07:03:13;30.10;1.00
27781;DHT22;15167;1.318;103.762;2022-10-16T07:05:42;29.80;1.00
27781;DHT22;15167;1.318;103.762;2022-10-16T07:08:08;29.70;1.00
27781;DHT22;15167;1.318;103.762;2022-10-16T07:10:35;29.60;1.00
27781;DHT22;15167;1.318;103.762;2022-10-16T07:13:01;29.50;48.70
27781;DHT22;15167;1.318;103.762;2022-10-16T07:15:27;29.50;1.00
27781;DHT22;15167;1.318;103.762;2022-10-16T07:17:53;29.60;1.00
27781;DHT22;15167;1.318;103.762;2022-10-16T07:20:20;29.60;1.00
27781;DHT22;15167;1.318;103.762;2022-10-16T07:22:46;29.60;99.90
27781;DHT22;15167;1.318;103.762;2022-10-16T07:25:12;29.70;99.90
27781;DHT22;15167;1.318;103.762;2022-10-16T07:27:38;29.60;99.90
27781;DHT22;15167;1.318;103.762;2022-10-16T07:30:04;29.70;99.90
27781;DHT22;15167;1.318;103.762;2022-10-16T07:32:31;29.60;99.90
27781;DHT22;15167;1.318;103.762;2022-10-16T07:34:57;29.60;99.90
27781;DHT22;15167;1.318;103.762;2022-10-16T07:37:23;29.50;99.90
27781;DHT22;15167;1.318;103.762;2022-10-16T07:39:49;29.40;99.90
27781;DHT22;15167;1.318;103.762;2022-10-16T07:42:15;29.40;99.90
27781;DHT22;15167;1.318;103.762;2022-10-16T07:44:41;29.50;99.90
27781;DHT22;15167;1.318;103.762;2022-10-16T07:47:09;29.50;99.90
27781;DHT22;15167;1.318;103.762;2022-10-16T07:49:35;29.50;99.90
27781;DHT22;15167;1.318;103.762;2022-10-16T07:52:01;29.50;99.90
27781;DHT22;15167;1.318;103.762;2022-10-16T07:54:27;29.60;99.90
27781;DHT22;15167;1.318;103.762;2022-10-16T07:56:53;29.60;99.90
27781;DHT22;15167;1.318;103.762;2022-10-16T07:59:19;29.60;99.90
27781;DHT22;15167;1.318;103.762;2022-10-16T08:01:45;29.60;99.90
27781;DHT22;15167;1.318;103.762;2022-10-16T08:04:12;29.70;99.90
27781;DHT22;15167;1.318;103.762;2022-10-16T08:06:38;29.70;1.00
27781;DHT22;15167;1.318;103.762;2022-10-16T08:09:05;29.80;1.00
27781;DHT22;15167;1.318;103.762;2022-10-16T08:11:31;29.80;99.90
27781;DHT22;15167;1.318;103.762;2022-10-16T08:13:57;29.80;1.00
27781;DHT22;15167;1.318;103.762;2022-10-16T08:16:24;29.70;1.00
27781;DHT22;15167;1.318;103.762;2022-10-16T08:18:50;29.70;1.00
27781;DHT22;15167;1.318;103.762;2022-10-16T08:21:18;29.70;99.90
27781;DHT22;15167;1.318;103.762;2022-10-16T08:23:44;29.60;1.00
27781;DHT22;15167;1.318;103.762;2022-10-16T08:26:11;29.80;1.00
27781;DHT22;15167;1.318;103.762;2022-10-16T08:28:37;29.80;99.90
27781;DHT22;15167;1.318;103.762;2022-10-16T08:31:14;29.70;99.90
27781;DHT22;15167;1.318;103.762;2022-10-16T08:33:41;29.70;1.00
27781;DHT22;15167;1.318;103.762;2022-10-16T08:36:08;29.60;99.90
27781;DHT22;15167;1.318;103.762;2022-10-16T08:38:35;29.50;99.90
27781;DHT22;15167;1.318;103.762;2022-10-16T08:41:09;29.50;99.90
27781;DHT22;15167;1.318;103.762;2022-10-16T08:48:48;29.50;99.90
27781;DHT22;15167;1.318;103.762;2022-10-16T08:51:35;29.60;99.90
27781;DHT22;15167;1.318;103.762;2022-10-16T08:54:02;29.50;99.90
27781;DHT22;15167;1.318;103.762;2022-10-16T08:56:29;29.70;99.90
27781;DHT22;15167;1.318;103.762;2022-10-16T08:58:57;29.70;99.90
27781;DHT22;15167;1.318;103.762;2022-10-16T09:01:23;29.70;99.90
27781;DHT22;15167;1.318;103.762;2022-10-16T09:04:04;29.60;99.90
27781;DHT22;15167;1.318;103.762;2022-10-16T09:11:38;29.80;99.90
27781;DHT22;15167;1.318;103.762;2022-10-16T09:14:32;30.00;99.90
27781;DHT22;15167;1.318;103.762;2022-10-16T09:16:58;30.10;99.90
27781;DHT22;15167;1.318;103.762;2022-10-16T09:19:31;30.20;99.90
27781;DHT22;15167;1.318;103.762;2022-10-16T09:22:04;30.10;99.90
27781;DHT22;15167;1.318;103.762;2022-10-16T09:24:34;30.20;99.90
27781;DHT22;15167;1.318;103.762;2022-10-16T09:27:01;30.20;99.90
27781;DHT22;15167;1.318;103.762;2022-10-16T09:29:27;30.20;99.90
27781;DHT22;15167;1.318;103.762;2022-10-16T09:31:53;30.20;99.90
27781;DHT22;15167;1.318;103.762;2022-10-16T09:34:36;30.20;99.90
27781;DHT22;15167;1.318;103.762;2022-10-16T09:37:08;30.20;99.90
27781;DHT22;15167;1.318;103.762;2022-10-16T09:42:31;30.10;99.90
27781;DHT22;15167;1.318;103.762;2022-10-16T09:44:58;30.00;99.90
27781;DHT22;15167;1.318;103.762;2022-10-16T09:47:25;30.00;99.90
27781;DHT22;15167;1.318;103.762;2022-10-16T09:49:56;30.00;99.90
27781;DHT22;15167;1.318;103.762;2022-10-16T09:52:23;30.00;99.90
27781;DHT22;15167;1.318;103.762;2022-10-16T09:54:50;30.00;99.90
27781;DHT22;15167;1.318;103.762;2022-10-16T09:57:16;30.00;99.90
27781;DHT22;15167;1.318;103.762;2022-10-16T10:00:04;30.00;99.90
27781;DHT22;15167;1.318;103.762;2022-10-16T10:02:34;30.00;99.90
27781;DHT22;15167;1.318;103.762;2022-10-16T10:05:01;30.00;99.90
27781;DHT22;15167;1.318;103.762;2022-10-16T10:07:31;29.90;99.90
27781;DHT22;15167;1.318;103.762;2022-10-16T10:09:59;29.90;99.90
27781;DHT22;15167;1.318;103.762;2022-10-16T10:12:27;29.80;99.90
27781;DHT22;15167;1.318;103.762;2022-10-16T10:14:57;29.70;99.90
27781;DHT22;15167;1.318;103.762;2022-10-16T10:17:27;29.30;1.00
27781;DHT22;15167;1.318;103.762;2022-10-16T10:19:54;29.50;1.00
27781;DHT22;15167;1.318;103.762;2022-10-16T10:28:09;29.50;1.00
27781;DHT22;15167;1.318;103.762;2022-10-16T10:35:22;29.40;1.00
27781;DHT22;15167;1.318;103.762;2022-10-16T10:37:51;29.30;1.00
27781;DHT22;15167;1.318;103.762;2022-10-16T10:42:53;29.20;1.00
27781;DHT22;15167;1.318;103.762;2022-10-16T10:45:27;29.20;1.00
27781;DHT22;15167;1.318;103.762;2022-10-16T10:50:25;29.20;1.00
27781;DHT22;15167;1.318;103.762;2022-10-16T11:00:28;29.10;1.00
27781;DHT22;15167;1.318;103.762;2022-10-16T11:06:05;28.90;1.00
27781;DHT22;15167;1.318;103.762;2022-10-16T11:11:03;28.90;8.00
27781;DHT22;15167;1.318;103.762;2022-10-16T11:13:36;28.90;32.10
27781;DHT22;15167;1.318;103.762;2022-10-16T11:16:12;28.80;47.40
27781;DHT22;15167;1.318;103.762;2022-10-16T11:21:15;28.80;94.40
27781;DHT22;15167;1.318;103.762;2022-10-16T11:23:49;28.70;99.90
27781;DHT22;15167;1.318;103.762;2022-10-16T11:26:25;28.70;99.90
27781;DHT22;15167;1.318;103.762;2022-10-16T11:28:53;28.70;99.90
27781;DHT22;15167;1.318;103.762;2022-10-16T11:36:42;28.70;97.80
27781;DHT22;15167;1.318;103.762;2022-10-16T11:39:15;28.70;96.10
27781;DHT22;15167;1.318;103.762;2022-10-16T11:46:36;28.70;71.80
27781;DHT22;15167;1.318;103.762;2022-10-16T11:49:22;28.70;81.70
27781;DHT22;15167;1.318;103.762;2022-10-16T11:51:57;28.70;86.30
27781;DHT22;15167;1.318;103.762;2022-10-16T11:57:12;28.60;79.20
27781;DHT22;15167;1.318;103.762;2022-10-16T11:59:43;28.60;94.80
27781;DHT22;15167;1.318;103.762;2022-10-16T12:05:18;28.60;99.90
27781;DHT22;15167;1.318;103.762;2022-10-16T12:07:46;28.60;99.90
27781;DHT22;15167;1.318;103.762;2022-10-16T12:10:22;28.50;99.90
27781;DHT22;15167;1.318;103.762;2022-10-16T12:12:49;28.50;99.90
27781;DHT22;15167;1.318;103.762;2022-10-16T12:15:20;28.50;99.90
27781;DHT22;15167;1.318;103.762;2022-10-16T12:17:46;28.40;99.90
27781;DHT22;15167;1.318;103.762;2022-10-16T12:22:49;28.50;99.90
27781;DHT22;15167;1.318;103.762;2022-10-16T12:30:41;28.40;99.90
27781;DHT22;15167;1.318;103.762;2022-10-16T12:33:28;28.40;99.90
27781;DHT22;15167;1.318;103.762;2022-10-16T12:35:54;28.40;99.90
27781;DHT22;15167;1.318;103.762;2022-10-16T12:38:26;28.40;99.90
27781;DHT22;15167;1.318;103.762;2022-10-16T12:43:36;28.40;99.90
27781;DHT22;15167;1.318;103.762;2022-10-16T12:48:29;28.30;99.90
27781;DHT22;15167;1.318;103.762;2022-10-16T12:50:56;28.30;99.90
27781;DHT22;15167;1.318;103.762;2022-10-16T12:53:23;28.30;99.90
27781;DHT22;15167;1.318;103.762;2022-10-16T12:56:36;28.30;99.90
27781;DHT22;15167;1.318;103.762;2022-10-16T13:01:20;28.20;99.90
27781;DHT22;15167;1.318;103.762;2022-10-16T13:24:56;28.20;99.90
27781;DHT22;15167;1.318;103.762;2022-10-16T13:27:51;28.20;99.90
27781;DHT22;15167;1.318;103.762;2022-10-16T13:30:39;28.20;99.90
27781;DHT22;15167;1.318;103.762;2022-10-16T13:33:02;28.20;99.90
27781;DHT22;15167;1.318;103.762;2022-10-16T13:35:32;28.20;99.90
27781;DHT22;15167;1.318;103.762;2022-10-16T13:38:08;28.10;99.90
27781;DHT22;15167;1.318;103.762;2022-10-16T13:40:37;28.10;99.90
27781;DHT22;15167;1.318;103.762;2022-10-16T13:43:13;28.20;99.90
27781;DHT22;15167;1.318;103.762;2022-10-16T13:45:39;28.10;99.90
27781;DHT22;15167;1.318;103.762;2022-10-16T13:48:08;28.10;99.90
27781;DHT22;15167;1.318;103.762;2022-10-16T13:50:35;28.10;99.90
27781;DHT22;15167;1.318;103.762;2022-10-16T13:53:05;28.10;91.40
27781;DHT22;15167;1.318;103.762;2022-10-16T13:55:31;28.10;97.60
27781;DHT22;15167;1.318;103.762;2022-10-16T13:58:07;28.10;99.90
27781;DHT22;15167;1.318;103.762;2022-10-16T14:00:34;28.00;99.90
27781;DHT22;15167;1.318;103.762;2022-10-16T14:03:01;28.00;99.90
27781;DHT22;15167;1.318;103.762;2022-10-16T14:05:28;28.00;99.90
27781;DHT22;15167;1.318;103.762;2022-10-16T14:07:55;28.00;99.90
27781;DHT22;15167;1.318;103.762;2022-10-16T14:10:26;27.90;99.90
27781;DHT22;15167;1.318;103.762;2022-10-16T14:13:02;27.90;99.90
27781;DHT22;15167;1.318;103.762;2022-10-16T14:15:29;27.80;99.90
27781;DHT22;15167;1.318;103.762;2022-10-16T14:17:56;27.70;99.90
27781;DHT22;15167;1.318;103.762;2022-10-16T14:20:28;27.70;99.90
27781;DHT22;15167;1.318;103.762;2022-10-16T14:23:01;27.70;99.90
27781;DHT22;15167;1.318;103.762;2022-10-16T14:25:30;27.70;99.90
27781;DHT22;15167;1.318;103.762;2022-10-16T14:30:56;27.60;99.90
27781;DHT22;15167;1.318;103.762;2022-10-16T14:36:02;27.60;99.90
27781;DHT22;15167;1.318;103.762;2022-10-16T14:38:29;27.60;99.90
27781;DHT22;15167;1.318;103.762;2022-10-16T14:40:56;27.60;99.90
27781;DHT22;15167;1.318;103.762;2022-10-16T14:43:43;27.60;99.90
27781;DHT22;15167;1.318;103.762;2022-10-16T14:46:15;27.60;99.90
27781;DHT22;15167;1.318;103.762;2022-10-16T14:48:43;27.70;99.90
27781;DHT22;15167;1.318;103.762;2022-10-16T14:51:16;27.70;99.90
27781;DHT22;15167;1.318;103.762;2022-10-16T14:53:42;27.70;99.90
27781;DHT22;15167;1.318;103.762;2022-10-16T14:56:08;27.60;99.90
27781;DHT22;15167;1.318;103.762;2022-10-16T14:58:40;27.70;99.90
27781;DHT22;15167;1.318;103.762;2022-10-16T15:01:07;27.70;99.90
27781;DHT22;15167;1.318;103.762;2022-10-16T15:03:34;27.70;99.90
27781;DHT22;15167;1.318;103.762;2022-10-16T15:06:00;27.70;99.90
27781;DHT22;15167;1.318;103.762;2022-10-16T15:08:26;27.70;99.90
27781;DHT22;15167;1.318;103.762;2022-10-16T15:10:52;27.60;98.00
27781;DHT22;15167;1.318;103.762;2022-10-16T15:13:18;27.60;99.60
27781;DHT22;15167;1.318;103.762;2022-10-16T15:15:45;27.70;93.50
27781;DHT22;15167;1.318;103.762;2022-10-16T15:18:11;27.70;78.70
27781;DHT22;15167;1.318;103.762;2022-10-16T15:20:40;27.70;33.10
27781;DHT22;15167;1.318;103.762;2022-10-16T15:23:10;27.70;42.70
27781;DHT22;15167;1.318;103.762;2022-10-16T15:28:07;27.70;1.00
27781;DHT22;15167;1.318;103.762;2022-10-16T15:30:34;27.70;1.00
27781;DHT22;15167;1.318;103.762;2022-10-16T15:33:01;27.70;6.10
27781;DHT22;15167;1.318;103.762;2022-10-16T15:35:28;27.70;6.80
27781;DHT22;15167;1.318;103.762;2022-10-16T15:37:54;27.70;27.50
27781;DHT22;15167;1.318;103.762;2022-10-16T15:40:20;27.70;11.70
27781;DHT22;15167;1.318;103.762;2022-10-16T15:42:46;27.60;21.60
27781;DHT22;15167;1.318;103.762;2022-10-16T15:45:13;27.70;20.20
27781;DHT22;15167;1.318;103.762;2022-10-16T15:47:42;27.70;17.50
27781;DHT22;15167;1.318;103.762;2022-10-16T15:50:09;27.70;40.00
27781;DHT22;15167;1.318;103.762;2022-10-16T15:52:36;27.70;30.90
27781;DHT22;15167;1.318;103.762;2022-10-16T15:55:04;27.70;43.40
27781;DHT22;15167;1.318;103.762;2022-10-16T15:57:30;27.70;56.50
27781;DHT22;15167;1.318;103.762;2022-10-16T15:59:56;27.70;85.90
27781;DHT22;15167;1.318;103.762;2022-10-16T16:02:22;27.70;70.10
27781;DHT22;15167;1.318;103.762;2022-10-16T16:04:48;27.70;65.90
27781;DHT22;15167;1.318;103.762;2022-10-16T16:07:14;27.70;57.30
27781;DHT22;15167;1.318;103.762;2022-10-16T16:09:40;27.70;43.40
27781;DHT22;15167;1.318;103.762;2022-10-16T16:12:06;27.70;45.40
27781;DHT22;15167;1.318;103.762;2022-10-16T16:14:33;27.70;54.00
27781;DHT22;15167;1.318;103.762;2022-10-16T16:16:59;27.70;63.20
27781;DHT22;15167;1.318;103.762;2022-10-16T16:19:25;27.70;66.50
27781;DHT22;15167;1.318;103.762;2022-10-16T16:21:51;27.70;83.60
27781;DHT22;15167;1.318;103.762;2022-10-16T16:24:17;27.70;57.30
27781;DHT22;15167;1.318;103.762;2022-10-16T16:26:43;27.70;49.00
27781;DHT22;15167;1.318;103.762;2022-10-16T16:29:13;27.70;25.70
27781;DHT22;15167;1.318;103.762;2022-10-16T16:31:39;27.70;15.30
27781;DHT22;15167;1.318;103.762;2022-10-16T16:34:06;27.70;15.30
27781;DHT22;15167;1.318;103.762;2022-10-16T16:36:32;27.70;18.10
27781;DHT22;15167;1.318;103.762;2022-10-16T16:38:58;27.70;36.90
27781;DHT22;15167;1.318;103.762;2022-10-16T16:41:25;27.70;63.30
27781;DHT22;15167;1.318;103.762;2022-10-16T16:43:52;27.70;83.00
27781;DHT22;15167;1.318;103.762;2022-10-16T16:46:19;27.70;43.00
27781;DHT22;15167;1.318;103.762;2022-10-16T16:48:45;27.70;17.40
27781;DHT22;15167;1.318;103.762;2022-10-16T16:51:13;27.70;8.10
27781;DHT22;15167;1.318;103.762;2022-10-16T16:53:44;27.70;5.10
27781;DHT22;15167;1.318;103.762;2022-10-16T16:56:10;27.70;19.00
27781;DHT22;15167;1.318;103.762;2022-10-16T16:58:36;27.70;77.60
27781;DHT22;15167;1.318;103.762;2022-10-16T17:01:02;27.70;79.20
27781;DHT22;15167;1.318;103.762;2022-10-16T17:03:29;27.70;46.60
27781;DHT22;15167;1.318;103.762;2022-10-16T17:06:00;27.70;14.80
27781;DHT22;15167;1.318;103.762;2022-10-16T17:08:26;27.70;1.00
27781;DHT22;15167;1.318;103.762;2022-10-16T17:10:54;27.70;1.00
27781;DHT22;15167;1.318;103.762;2022-10-16T17:13:31;27.60;1.00
27781;DHT22;15167;1.318;103.762;2022-10-16T17:15:59;27.70;45.00
27781;DHT22;15167;1.318;103.762;2022-10-16T17:18:26;27.70;92.30
27781;DHT22;15167;1.318;103.762;2022-10-16T17:20:52;27.60;93.30